SHMÚ vydal hydrologické výstrahy na   Povodeň Display warnings

TAF

Aerodrome Forecast TAF

TAF description (Slovak)

22.07.2018 - 11:00 UTC (Včera)

TAF LZIB 221100Z 2212/2312 25010KT 9999 SCT045 BKN090
    TEMPO 2212/2222 -SHRA FEW040CB BKN050
    PROB30 TEMPO 2212/2218 33015G25KT 2000 TSRA SCT035CB BKN040
    BECMG 2218/2220 34010KT
    PROB40 TEMPO 2222/2306 -RA BKN030=
TAF LZKZ 221100Z 2212/2312 21006KT 9999 FEW040 SCT060
    TEMPO 2212/2219 36015G28KT 3000 TSRA SCT035CB BKN040
    BECMG 2220/2222 01005KT CAVOK
    BECMG 2305/2307 36012KT=
TAF LZTT 221100Z 2212/2312 VRB02KT 9999 SCT050
    TEMPO 2212/2222 -SHRA FEW040CB BKN060
    TEMPO 2212/2217 23015G25KT 3000 TSRA SCT030CB BKN040
    TEMPO 2302/2305 3000 BCFG SCT008
    BECMG 2307/2309 06008KT=

22.07.2018 - 02:00 UTC (Včera)

TAF AMD LZZI 220401Z 2204/2212 30003KT 9999 SCT045
    TEMPO 2204/2206 4000 BR BKN002
    PROB30 TEMPO 2209/2212 32012G26KT 3000 TSRA SCT040CB BKN050=

skok na menu ↑


skok na začiatok stránky ↑